createdAt,value
2018-04-25T00:00:51.001Z,97378
2018-04-25T00:03:19.182Z,97386
2018-04-25T00:05:47.349Z,97379
2018-04-25T00:08:15.540Z,97371
2018-04-25T00:10:43.706Z,97367
2018-04-25T00:13:11.911Z,97368
2018-04-25T00:15:40.088Z,97362
2018-04-25T00:18:09.033Z,97356
2018-04-25T00:20:37.209Z,97358
2018-04-25T00:23:05.405Z,97359
2018-04-25T00:25:33.935Z,97355
2018-04-25T00:28:02.109Z,97353
2018-04-25T00:30:31.060Z,97350
2018-04-25T00:33:00.769Z,97349
2018-04-25T00:35:28.948Z,97350
2018-04-25T00:37:57.156Z,97349
2018-04-25T00:40:26.092Z,97343
2018-04-25T00:42:54.256Z,97347
2018-04-25T00:45:22.418Z,97343
2018-04-25T00:47:50.617Z,97346
2018-04-25T00:50:18.806Z,97345
2018-04-25T00:52:46.971Z,97340
2018-04-25T00:55:15.136Z,97338
2018-04-25T00:57:43.307Z,97336
2018-04-25T01:00:11.492Z,97338
2018-04-25T01:02:39.709Z,97333
2018-04-25T01:05:08.653Z,97335
2018-04-25T01:07:36.834Z,97336
2018-04-25T01:10:05.041Z,97331
2018-04-25T01:12:33.213Z,97334
2018-04-25T01:15:01.384Z,97329
2018-04-25T01:17:29.573Z,97326
2018-04-25T01:19:58.578Z,97327
2018-04-25T01:22:27.545Z,97325
2018-04-25T01:28:07.659Z,97322
2018-04-25T01:30:46.481Z,97315
2018-04-25T01:33:17.157Z,97316
2018-04-25T01:35:45.424Z,97316
2018-04-25T01:38:13.661Z,97313
2018-04-25T01:40:42.614Z,97315
2018-04-25T01:43:11.557Z,97317
2018-04-25T01:49:27.867Z,97310
2018-04-25T01:52:14.487Z,97315
2018-04-25T01:55:00.576Z,97313
2018-04-25T01:57:46.719Z,97314
2018-04-25T02:00:32.560Z,97308
2018-04-25T02:02:59.981Z,97316
2018-04-25T02:05:28.922Z,97319
2018-04-25T02:07:57.094Z,97317
2018-04-25T02:10:25.256Z,97317
2018-04-25T02:12:53.438Z,97322
2018-04-25T02:15:21.632Z,97323
2018-04-25T02:17:49.808Z,97315
2018-04-25T02:20:17.985Z,97322
2018-04-25T02:22:46.155Z,97323
2018-04-25T02:25:14.329Z,97314
2018-04-25T02:27:42.507Z,97316
2018-04-25T02:30:10.692Z,97314
2018-04-25T02:32:38.864Z,97318
2018-04-25T02:35:07.037Z,97315
2018-04-25T02:37:35.206Z,97318
2018-04-25T02:40:03.388Z,97323
2018-04-25T02:42:31.561Z,97323
2018-04-25T02:44:59.751Z,97322
2018-04-25T02:47:27.930Z,97322
2018-04-25T02:49:56.102Z,97316
2018-04-25T02:52:24.291Z,97314
2018-04-25T02:54:52.465Z,97315
2018-04-25T02:57:20.657Z,97309
2018-04-25T02:59:49.595Z,97308
2018-04-25T03:02:17.794Z,97308
2018-04-25T03:04:45.957Z,97308
2018-04-25T03:07:14.130Z,97305
2018-04-25T03:09:42.303Z,97302
2018-04-25T03:12:10.477Z,97299
2018-04-25T03:14:38.657Z,97299
2018-04-25T03:17:06.836Z,97294
2018-04-25T03:19:35.004Z,97291
2018-04-25T03:22:03.168Z,97293
2018-04-25T03:24:31.369Z,97291
2018-04-25T03:26:59.556Z,97293
2018-04-25T03:29:27.735Z,97293
2018-04-25T03:31:55.940Z,97292
2018-04-25T03:34:24.119Z,97288
2018-04-25T03:36:52.296Z,97289
2018-04-25T03:39:20.497Z,97289
2018-04-25T03:41:48.660Z,97284
2018-04-25T03:44:16.836Z,97286
2018-04-25T03:46:45.020Z,97288
2018-04-25T03:49:13.197Z,97287
2018-04-25T03:51:41.375Z,97285
2018-04-25T03:54:09.583Z,97290
2018-04-25T03:56:37.772Z,97291
2018-04-25T03:59:06.730Z,97284
2018-04-25T04:01:34.896Z,97285
2018-04-25T04:04:03.091Z,97284
2018-04-25T04:06:31.277Z,97284
2018-04-25T04:09:00.220Z,97293
2018-04-25T04:11:28.397Z,97288
2018-04-25T04:13:56.589Z,97289
2018-04-25T04:16:24.757Z,97288
2018-04-25T04:18:52.924Z,97286
2018-04-25T04:21:21.100Z,97288
2018-04-25T04:23:49.302Z,97293
2018-04-25T04:26:17.478Z,97288
2018-04-25T04:28:45.657Z,97291
2018-04-25T04:31:13.875Z,97296
2018-04-25T04:33:42.083Z,97291
2018-04-25T04:36:10.250Z,97297
2018-04-25T04:38:38.420Z,97299
2018-04-25T04:41:06.657Z,97301
2018-04-25T04:43:34.813Z,97304
2018-04-25T04:46:02.987Z,97298
2018-04-25T04:48:31.931Z,97296
2018-04-25T04:51:00.105Z,97303
2018-04-25T04:53:28.279Z,97310
2018-04-25T04:55:56.455Z,97311
2018-04-25T04:58:24.651Z,97314
2018-04-25T05:00:52.921Z,97312
2018-04-25T05:03:21.124Z,97317
2018-04-25T05:05:49.294Z,97312
2018-04-25T05:08:17.467Z,97318
2018-04-25T05:10:45.668Z,97316
2018-04-25T05:13:14.659Z,97311
2018-04-25T05:15:42.788Z,97319
2018-04-25T05:18:11.737Z,97318
2018-04-25T05:20:40.707Z,97315
2018-04-25T05:23:08.879Z,97313
2018-04-25T05:25:37.051Z,97312
2018-04-25T05:28:05.230Z,97313
2018-04-25T05:30:33.423Z,97313
2018-04-25T05:33:02.356Z,97314
2018-04-25T05:35:30.522Z,97310
2018-04-25T05:37:58.697Z,97309
2018-04-25T05:40:26.871Z,97312
2018-04-25T05:42:55.029Z,97318
2018-04-25T05:45:23.206Z,97316
2018-04-25T05:47:51.412Z,97317
2018-04-25T05:50:19.588Z,97311
2018-04-25T05:52:47.775Z,97310
2018-04-25T05:55:15.944Z,97308
2018-04-25T05:57:44.239Z,97310
2018-04-25T06:00:12.420Z,97311
2018-04-25T06:02:41.373Z,97310
2018-04-25T06:05:09.561Z,97313
2018-04-25T06:07:37.736Z,97311
2018-04-25T06:10:05.917Z,97311
2018-04-25T06:12:34.221Z,97312
2018-04-25T06:15:02.332Z,97315
2018-04-25T06:17:30.507Z,97319
2018-04-25T06:19:58.689Z,97315
2018-04-25T06:22:26.862Z,97312
2018-04-25T06:24:55.025Z,97310
2018-04-25T06:27:23.218Z,97305
2018-04-25T06:29:51.407Z,97304
2018-04-25T06:32:19.572Z,97304
2018-04-25T06:34:47.737Z,97308
2018-04-25T06:37:15.932Z,97316
2018-04-25T06:39:44.107Z,97314
2018-04-25T06:42:12.272Z,97315
2018-04-25T06:44:40.500Z,97314
2018-04-25T06:47:09.439Z,97311
2018-04-25T06:49:37.609Z,97312
2018-04-25T06:52:05.777Z,97307
2018-04-25T06:54:33.956Z,97304
2018-04-25T06:57:02.128Z,97304
2018-04-25T06:59:30.297Z,97298
2018-04-25T07:01:58.993Z,97297
2018-04-25T07:04:27.168Z,97299
2018-04-25T07:06:55.344Z,97299
2018-04-25T07:09:23.528Z,97294
2018-04-25T07:11:53.376Z,97292
2018-04-25T07:14:22.349Z,97291
2018-04-25T07:16:50.521Z,97292
2018-04-25T07:19:18.699Z,97283
2018-04-25T07:21:46.873Z,97287
2018-04-25T07:24:15.070Z,97285
2018-04-25T07:26:44.017Z,97285
2018-04-25T07:29:12.190Z,97280
2018-04-25T07:31:40.360Z,97285
2018-04-25T07:34:08.542Z,97286
2018-04-25T07:36:36.746Z,97285
2018-04-25T07:39:04.963Z,97284
2018-04-25T07:41:33.168Z,97285
2018-04-25T07:44:01.402Z,97284
2018-04-25T07:46:30.340Z,97287
2018-04-25T07:48:59.025Z,97288
2018-04-25T07:51:27.297Z,97287
2018-04-25T07:53:56.401Z,97285
2018-04-25T07:56:25.147Z,97284
2018-04-25T07:58:57.463Z,97286
2018-04-25T08:01:25.629Z,97292
2018-04-25T08:03:53.841Z,97286
2018-04-25T08:06:22.616Z,97287
2018-04-25T08:08:54.659Z,97290
2018-04-25T08:11:22.848Z,97290
2018-04-25T08:14:08.932Z,97289
2018-04-25T08:16:55.021Z,97284
2018-04-25T08:19:41.162Z,97288
2018-04-25T08:22:13.797Z,97282
2018-04-25T08:24:42.041Z,97285
2018-04-25T08:27:10.228Z,97283
2018-04-25T08:29:38.577Z,97283
2018-04-25T08:32:07.725Z,97289
2018-04-25T08:34:36.728Z,97283
2018-04-25T08:37:04.923Z,97284
2018-04-25T08:39:33.104Z,97283
2018-04-25T08:42:01.286Z,97287
2018-04-25T08:44:30.262Z,97282
2018-04-25T08:46:58.448Z,97280
2018-04-25T08:49:27.390Z,97278
2018-04-25T08:51:55.572Z,97275
2018-04-25T08:54:23.740Z,97275
2018-04-25T08:56:51.916Z,97269
2018-04-25T08:59:20.165Z,97258
2018-04-25T09:01:48.285Z,97259
2018-04-25T09:04:16.460Z,97259
2018-04-25T09:06:44.637Z,97250
2018-04-25T09:09:12.834Z,97257
2018-04-25T09:11:41.026Z,97255
2018-04-25T09:14:09.973Z,97255
2018-04-25T09:16:38.150Z,97246
2018-04-25T09:19:06.327Z,97245
2018-04-25T09:21:34.504Z,97236
2018-04-25T09:24:02.687Z,97233
2018-04-25T09:26:30.860Z,97240
2018-04-25T09:28:59.072Z,97236
2018-04-25T09:31:28.013Z,97233
2018-04-25T09:33:56.186Z,97233
2018-04-25T09:36:24.354Z,97227
2018-04-25T09:38:52.528Z,97226
2018-04-25T09:41:20.701Z,97223
2018-04-25T09:43:48.873Z,97215
2018-04-25T09:46:17.045Z,97217
2018-04-25T09:48:45.216Z,97210
2018-04-25T09:51:13.409Z,97209
2018-04-25T09:53:41.573Z,97205
2018-04-25T09:56:09.746Z,97205
2018-04-25T09:58:37.916Z,97202
2018-04-25T10:01:06.090Z,97201
2018-04-25T10:03:34.274Z,97193
2018-04-25T10:06:02.443Z,97188
2018-04-25T10:08:30.608Z,97187
2018-04-25T10:10:58.780Z,97184
2018-04-25T10:13:26.947Z,97183
2018-04-25T10:15:55.114Z,97180
2018-04-25T10:18:23.279Z,97173
2018-04-25T10:20:52.226Z,97166
2018-04-25T10:23:20.399Z,97169
2018-04-25T10:25:48.573Z,97164
2018-04-25T10:28:16.773Z,97163
2018-04-25T10:30:44.953Z,97157
2018-04-25T10:33:13.899Z,97158
2018-04-25T10:35:42.076Z,97157
2018-04-25T10:38:10.255Z,97151
2018-04-25T10:40:38.450Z,97148
2018-04-25T10:43:06.654Z,97148
2018-04-25T10:45:35.601Z,97148
2018-04-25T10:48:04.549Z,97147
2018-04-25T10:50:33.482Z,97139
2018-04-25T10:53:01.652Z,97142
2018-04-25T10:55:29.885Z,97133
2018-04-25T10:57:59.541Z,97127
2018-04-25T11:00:27.719Z,97126
2018-04-25T11:02:55.885Z,97121
2018-04-25T11:05:24.052Z,97113
2018-04-25T11:07:52.232Z,97113
2018-04-25T11:10:20.820Z,97107
2018-04-25T11:12:48.989Z,97103
2018-04-25T11:15:17.184Z,97088
2018-04-25T11:17:45.357Z,97082
2018-04-25T11:20:13.528Z,97081
2018-04-25T11:22:42.499Z,97069
2018-04-25T11:25:14.130Z,97078
2018-04-25T11:27:46.528Z,97072
2018-04-25T11:30:14.953Z,97070
2018-04-25T11:32:48.179Z,97072
2018-04-25T11:35:17.003Z,97066
2018-04-25T11:37:45.170Z,97071
2018-04-25T11:40:16.433Z,97072
2018-04-25T11:42:44.596Z,97070
2018-04-25T11:45:12.812Z,97058
2018-04-25T11:47:42.023Z,97064
2018-04-25T11:50:11.199Z,97058
2018-04-25T11:52:45.253Z,97054
2018-04-25T11:55:15.229Z,97047
2018-04-25T11:57:43.402Z,97043
2018-04-25T12:00:14.591Z,97040
2018-04-25T12:02:43.979Z,97039
2018-04-25T12:05:12.162Z,97045
2018-04-25T12:07:40.347Z,97033
2018-04-25T12:10:15.120Z,97033
2018-04-25T12:12:44.200Z,97029
2018-04-25T12:15:12.381Z,97025
2018-04-25T12:17:40.604Z,97015
2018-04-25T12:20:09.386Z,97016
2018-04-25T12:22:40.284Z,97016
2018-04-25T12:25:08.460Z,97011
2018-04-25T12:27:36.661Z,97018
2018-04-25T12:30:12.848Z,97007
2018-04-25T12:32:41.971Z,97011
2018-04-25T12:35:15.848Z,97003
2018-04-25T12:37:46.876Z,97002
2018-04-25T12:40:15.036Z,97002
2018-04-25T12:42:43.213Z,96993
2018-04-25T12:45:17.687Z,96994
2018-04-25T12:47:46.706Z,96991
2018-04-25T12:50:14.881Z,96993
2018-04-25T12:52:43.276Z,96981
2018-04-25T12:55:11.481Z,96977
2018-04-25T12:57:39.657Z,96984
2018-04-25T13:00:07.820Z,96974
2018-04-25T13:02:36.072Z,96968
2018-04-25T13:05:04.973Z,96972
2018-04-25T13:07:33.141Z,96974
2018-04-25T13:10:01.313Z,96962
2018-04-25T13:12:29.485Z,96959
2018-04-25T13:14:57.691Z,96963
2018-04-25T13:17:25.876Z,96950
2018-04-25T13:19:54.051Z,96949
2018-04-25T13:22:22.232Z,96946
2018-04-25T13:24:51.202Z,96949
2018-04-25T13:27:19.441Z,96942
2018-04-25T13:29:47.608Z,96943
2018-04-25T13:32:15.793Z,96939
2018-04-25T13:34:43.964Z,96935
2018-04-25T13:37:12.137Z,96933
2018-04-25T13:39:40.317Z,96926
2018-04-25T13:42:08.508Z,96922
2018-04-25T13:44:36.685Z,96923
2018-04-25T13:47:04.864Z,96920
2018-04-25T13:49:33.033Z,96915
2018-04-25T13:52:01.210Z,96906
2018-04-25T13:54:29.373Z,96900
2018-04-25T13:56:57.569Z,96896
2018-04-25T13:59:25.743Z,96891
2018-04-25T14:01:53.941Z,96888
2018-04-25T14:04:22.884Z,96892
2018-04-25T14:06:51.057Z,96881
2018-04-25T14:09:19.266Z,96878
2018-04-25T14:11:47.440Z,96868
2018-04-25T14:14:15.614Z,96869
2018-04-25T14:16:43.793Z,96873
2018-04-25T14:19:11.965Z,96868
2018-04-25T14:21:40.129Z,96859
2018-04-25T14:24:08.304Z,96847
2018-04-25T14:26:36.481Z,96853
2018-04-25T14:29:04.651Z,96856
2018-04-25T14:31:32.831Z,96846
2018-04-25T14:34:01.024Z,96849
2018-04-25T14:36:29.193Z,96848
2018-04-25T14:38:57.371Z,96844
2018-04-25T14:41:25.563Z,96842
2018-04-25T14:43:54.507Z,96834
2018-04-25T14:46:22.676Z,96835
2018-04-25T14:48:50.857Z,96837
2018-04-25T14:51:19.029Z,96835
2018-04-25T14:53:47.200Z,96836
2018-04-25T14:56:15.386Z,96843
2018-04-25T14:58:43.560Z,96823
2018-04-25T15:01:11.784Z,96825
2018-04-25T15:03:40.720Z,96815
2018-04-25T15:06:08.900Z,96817
2018-04-25T15:08:37.066Z,96811
2018-04-25T15:11:05.241Z,96807
2018-04-25T15:13:33.417Z,96807
2018-04-25T15:16:01.630Z,96800
2018-04-25T15:18:30.674Z,96798
2018-04-25T15:20:58.887Z,96792
2018-04-25T15:23:27.071Z,96794
2018-04-25T15:25:55.242Z,96795
2018-04-25T15:28:23.425Z,96789
2018-04-25T15:30:52.396Z,96790
2018-04-25T15:33:20.565Z,96787
2018-04-25T15:35:48.736Z,96787
2018-04-25T15:38:16.910Z,96786
2018-04-25T15:40:45.074Z,96788
2018-04-25T15:43:13.252Z,96781
2018-04-25T15:45:41.426Z,96785
2018-04-25T15:48:09.605Z,96782
2018-04-25T15:50:37.789Z,96781
2018-04-25T15:53:05.958Z,96782
2018-04-25T15:55:34.128Z,96777
2018-04-25T15:58:02.317Z,96779
2018-04-25T16:00:30.486Z,96775
2018-04-25T16:02:58.661Z,96778
2018-04-25T16:05:26.841Z,96771
2018-04-25T16:07:55.008Z,96770
2018-04-25T16:10:23.194Z,96771
2018-04-25T16:12:51.455Z,96765
2018-04-25T16:15:19.628Z,96766
2018-04-25T16:17:47.804Z,96757
2018-04-25T16:20:16.018Z,96756
2018-04-25T16:22:45.003Z,96759
2018-04-25T16:25:13.162Z,96757
2018-04-25T16:27:41.324Z,96753
2018-04-25T16:30:09.515Z,96754
2018-04-25T16:32:39.434Z,96749
2018-04-25T16:35:08.383Z,96744
2018-04-25T16:37:36.546Z,96745
2018-04-25T16:40:04.711Z,96743
2018-04-25T16:42:32.894Z,96741
2018-04-25T16:45:01.064Z,96739
2018-04-25T16:47:29.225Z,96737
2018-04-25T16:49:58.162Z,96742
2018-04-25T16:52:26.335Z,96738
2018-04-25T16:54:54.506Z,96739
2018-04-25T16:57:22.698Z,96738
2018-04-25T16:59:50.890Z,96742
2018-04-25T17:02:19.076Z,96738
2018-04-25T17:04:48.590Z,96739
2018-04-25T17:07:19.452Z,96742
2018-04-25T17:09:47.788Z,96743
2018-04-25T17:12:16.021Z,96744
2018-04-25T17:14:44.294Z,96747
2018-04-25T17:17:12.481Z,96737
2018-04-25T17:19:40.659Z,96742
2018-04-25T17:22:08.835Z,96741
2018-04-25T17:24:37.014Z,96739
2018-04-25T17:27:05.182Z,96740
2018-04-25T17:29:34.896Z,96746
2018-04-25T17:32:03.075Z,96743
2018-04-25T17:34:31.267Z,96743
2018-04-25T17:36:59.452Z,96743
2018-04-25T17:39:28.400Z,96751
2018-04-25T17:41:56.582Z,96757
2018-04-25T17:44:24.755Z,96756
2018-04-25T17:46:52.932Z,96753
2018-04-25T17:49:21.137Z,96759
2018-04-25T17:51:50.256Z,96756
2018-04-25T17:54:19.209Z,96762
2018-04-25T17:56:47.400Z,96763
2018-04-25T17:59:15.578Z,96761
2018-04-25T18:01:43.806Z,96764
2018-04-25T18:04:11.989Z,96768
2018-04-25T18:06:40.166Z,96771
2018-04-25T18:09:08.338Z,96771
2018-04-25T18:11:36.575Z,96775
2018-04-25T18:14:04.726Z,96780
2018-04-25T18:16:32.919Z,96779
2018-04-25T18:19:01.922Z,96780
2018-04-25T18:21:30.866Z,96785
2018-04-25T18:23:59.040Z,96782
2018-04-25T18:26:27.217Z,96786
2018-04-25T18:28:55.445Z,96790
2018-04-25T18:31:23.630Z,96796
2018-04-25T18:33:51.829Z,96805
2018-04-25T18:36:20.035Z,96813
2018-04-25T18:38:48.214Z,96815
2018-04-25T18:41:16.422Z,96817
2018-04-25T18:43:45.413Z,96828
2018-04-25T18:46:13.584Z,96830
2018-04-25T18:48:41.772Z,96830
2018-04-25T18:51:09.987Z,96836
2018-04-25T18:53:38.189Z,96839
2018-04-25T18:56:07.123Z,96845
2018-04-25T18:58:35.288Z,96839
2018-04-25T19:01:03.473Z,96836
2018-04-25T19:03:31.655Z,96840
2018-04-25T19:06:00.210Z,96844
2018-04-25T19:08:28.404Z,96842
2018-04-25T19:10:56.595Z,96844
2018-04-25T19:13:24.770Z,96848
2018-04-25T19:15:52.947Z,96851
2018-04-25T19:18:21.117Z,96858
2018-04-25T19:20:49.293Z,96859
2018-04-25T19:23:17.469Z,96858
2018-04-25T19:25:45.652Z,96858
2018-04-25T19:28:13.826Z,96860
2018-04-25T19:30:42.022Z,96860
2018-04-25T19:33:10.221Z,96862
2018-04-25T19:35:39.157Z,96862
2018-04-25T19:38:07.342Z,96873
2018-04-25T19:40:36.301Z,96876
2018-04-25T19:43:04.475Z,96880
2018-04-25T19:45:32.657Z,96874
2018-04-25T19:48:00.849Z,96871
2018-04-25T19:50:29.027Z,96873
2018-04-25T19:52:57.213Z,96877
2018-04-25T19:55:25.385Z,96884
2018-04-25T19:57:53.555Z,96886
2018-04-25T20:00:21.756Z,96894
2018-04-25T20:02:49.956Z,96892
2018-04-25T20:05:18.919Z,96900
2018-04-25T20:07:47.102Z,96905
2018-04-25T20:10:15.281Z,96906
2018-04-25T20:12:43.481Z,96912
2018-04-25T20:15:11.673Z,96914
2018-04-25T20:17:39.956Z,96919
2018-04-25T20:20:08.156Z,96918
2018-04-25T20:22:36.361Z,96921
2018-04-25T20:25:05.341Z,96932
2018-04-25T20:27:34.330Z,96925
2018-04-25T20:30:02.569Z,96929
2018-04-25T20:32:30.742Z,96927
2018-04-25T20:34:58.929Z,96926
2018-04-25T20:37:27.132Z,96922
2018-04-25T20:39:55.322Z,96917
2018-04-25T20:42:24.294Z,96912
2018-04-25T20:44:52.480Z,96919
2018-04-25T20:47:21.428Z,96922
2018-04-25T20:49:49.596Z,96928
2018-04-25T20:52:17.773Z,96930
2018-04-25T20:54:45.945Z,96932
2018-04-25T20:57:14.120Z,96932
2018-04-25T20:59:42.289Z,96938
2018-04-25T21:02:10.474Z,96945
2018-04-25T21:04:38.674Z,96940
2018-04-25T21:07:06.845Z,96943
2018-04-25T21:09:35.036Z,96939
2018-04-25T21:12:03.209Z,96938
2018-04-25T21:14:31.429Z,96943
2018-04-25T21:16:59.610Z,96948
2018-04-25T21:19:27.799Z,96949
2018-04-25T21:21:56.021Z,96950
2018-04-25T21:24:24.215Z,96948
2018-04-25T21:26:53.174Z,96949
2018-04-25T21:29:21.347Z,96951
2018-04-25T21:31:49.536Z,96949
2018-04-25T21:34:17.719Z,96952
2018-04-25T21:36:46.670Z,96947
2018-04-25T21:39:14.871Z,96946
2018-04-25T21:41:43.051Z,96948
2018-04-25T21:44:11.233Z,96948
2018-04-25T21:46:39.409Z,96948
2018-04-25T21:49:08.363Z,96947
2018-04-25T21:51:36.548Z,96948
2018-04-25T21:54:04.781Z,96943
2018-04-25T21:56:32.984Z,96944
2018-04-25T21:59:01.170Z,96945
2018-04-25T22:01:29.354Z,96946
2018-04-25T22:03:57.526Z,96951
2018-04-25T22:06:25.694Z,96952
2018-04-25T22:08:53.872Z,96956
2018-04-25T22:11:22.053Z,96960
2018-04-25T22:13:50.234Z,96963
2018-04-25T22:16:18.424Z,96959
2018-04-25T22:18:46.593Z,96967
2018-04-25T22:21:15.550Z,96972
2018-04-25T22:23:43.754Z,96973
2018-04-25T22:26:11.976Z,96979
2018-04-25T22:28:40.146Z,96983
2018-04-25T22:31:08.343Z,96985
2018-04-25T22:33:36.532Z,96985
2018-04-25T22:36:04.720Z,96986
2018-04-25T22:38:32.892Z,96987
2018-04-25T22:41:01.069Z,96993
2018-04-25T22:43:30.005Z,96994
2018-04-25T22:45:58.181Z,97001
2018-04-25T22:48:26.352Z,97005
2018-04-25T22:50:55.299Z,97011
2018-04-25T22:53:23.502Z,97011
2018-04-25T22:55:52.509Z,97014
2018-04-25T22:58:21.451Z,97011
2018-04-25T23:00:49.630Z,97013
2018-04-25T23:03:17.809Z,97012
2018-04-25T23:05:46.009Z,97016
2018-04-25T23:08:15.003Z,97010
2018-04-25T23:10:43.144Z,97011
2018-04-25T23:13:11.339Z,97011
2018-04-25T23:15:39.536Z,97010
2018-04-25T23:18:08.483Z,97015
2018-04-25T23:20:36.689Z,97015
2018-04-25T23:23:04.860Z,97020
2018-04-25T23:25:33.042Z,97020
2018-04-25T23:28:02.022Z,97021
2018-04-25T23:30:30.206Z,97021
2018-04-25T23:32:58.384Z,97019
2018-04-25T23:35:26.553Z,97021
2018-04-25T23:37:54.736Z,97020
2018-04-25T23:40:23.706Z,97016
2018-04-25T23:42:51.871Z,97015
2018-04-25T23:45:20.045Z,97008
2018-04-25T23:47:48.220Z,97008
2018-04-25T23:50:16.400Z,97011
2018-04-25T23:52:44.584Z,97005
2018-04-25T23:55:12.762Z,97008
2018-04-25T23:57:40.938Z,97005
